Time;durP1;ratioP1;P1;durP2;ratioP2;P2;SDS_P1;SDS_P2;PMS_P1;PMS_P2;Temp;Humidity;BMP_temperature;BMP_pressure;BME280_temperature;BME280_humidity;BME280_pressure;Samples;Min_cycle;Max_cycle;Signal;HPM_P1;HPM_P2
2023/03/24 00:01:05;;;;;;;1999.90;999.90;;;13.70;99.90;;;;;;5071798;28;20407;-72
2023/03/24 00:03:31;;;;;;;1999.90;999.90;;;13.80;99.90;;;;;;5071455;28;20910;-71
2023/03/24 00:06:00;;;;;;;1999.90;999.90;;;13.80;99.90;;;;;;5071484;28;20453;-71
2023/03/24 00:08:29;;;;;;;1999.90;999.90;;;13.90;99.90;;;;;;5071722;28;20409;-71
2023/03/24 00:11:06;;;;;;;1999.90;999.90;;;13.90;99.90;;;;;;5071899;28;20446;-72
2023/03/24 00:13:37;;;;;;;1999.90;999.90;;;13.90;99.90;;;;;;5071395;28;20410;-72
2023/03/24 00:16:05;;;;;;;1999.90;999.90;;;14.00;99.90;;;;;;5071541;28;20425;-72
2023/03/24 00:18:30;;;;;;;1999.90;999.90;;;14.00;99.90;;;;;;5071516;28;20406;-72
2023/03/24 00:20:57;;;;;;;1999.90;999.90;;;14.00;99.90;;;;;;5071511;28;20491;-72
2023/03/24 00:23:31;;;;;;;1999.90;999.90;;;14.00;99.90;;;;;;5071285;28;20178;-72
2023/03/24 00:26:01;;;;;;;1999.90;999.90;;;14.10;99.90;;;;;;5071371;28;20887;-72
2023/03/24 00:28:28;;;;;;;1999.90;999.90;;;14.10;99.90;;;;;;5071483;28;20411;-72
2023/03/24 00:30:54;;;;;;;1999.90;999.90;;;14.20;99.90;;;;;;5071454;28;20964;-72
2023/03/24 00:33:19;;;;;;;1999.90;999.90;;;14.20;99.90;;;;;;5071258;28;20485;-72
2023/03/24 00:35:47;;;;;;;1999.90;999.90;;;14.30;99.90;;;;;;5073284;28;20286;-72
2023/03/24 00:38:12;;;;;;;1999.90;999.90;;;14.30;99.90;;;;;;5075055;28;20309;-72
2023/03/24 00:40:43;;;;;;;1999.90;999.90;;;14.30;99.90;;;;;;5075016;28;20510;-71
2023/03/24 00:43:09;;;;;;;1999.90;999.90;;;14.30;99.90;;;;;;5075047;28;20218;-72
2023/03/24 00:45:35;;;;;;;1999.90;999.90;;;14.00;99.90;;;;;;5074948;28;20922;-72
2023/03/24 00:48:00;;;;;;;1999.90;999.90;;;14.30;99.90;;;;;;5074868;28;20560;-72
2023/03/24 00:50:26;;;;;;;1999.90;999.90;;;14.40;99.90;;;;;;5074921;28;20172;-71
2023/03/24 00:52:53;;;;;;;1999.90;999.90;;;14.40;99.90;;;;;;5074905;28;20180;-72
2023/03/24 00:55:20;;;;;;;1999.90;999.90;;;14.40;99.90;;;;;;5074915;28;20166;-72
2023/03/24 00:57:48;;;;;;;1999.90;999.90;;;14.40;99.90;;;;;;5074716;28;20403;-72
2023/03/24 01:00:19;;;;;;;1999.90;999.90;;;14.40;99.90;;;;;;5074826;28;20453;-72
2023/03/24 01:02:47;;;;;;;1999.90;999.90;;;14.50;99.90;;;;;;5074573;28;20776;-72
2023/03/24 01:05:13;;;;;;;1999.90;999.90;;;14.50;99.90;;;;;;5074943;28;20419;-72
2023/03/24 01:07:40;;;;;;;1999.90;999.90;;;14.50;99.90;;;;;;5074300;28;20981;-72
2023/03/24 01:10:11;;;;;;;1999.90;999.90;;;14.50;99.90;;;;;;5074570;28;20747;-72
2023/03/24 01:12:38;;;;;;;1999.90;999.90;;;14.50;99.90;;;;;;5074364;28;20395;-72
2023/03/24 01:15:08;;;;;;;1999.90;999.90;;;14.50;99.90;;;;;;5074491;28;20425;-72
2023/03/24 01:17:34;;;;;;;1999.90;999.90;;;14.50;99.90;;;;;;5074292;28;20414;-72
2023/03/24 01:20:06;;;;;;;1999.90;999.90;;;14.50;99.90;;;;;;5074431;28;20408;-72
2023/03/24 01:22:36;;;;;;;1999.90;999.90;;;14.50;99.90;;;;;;5074175;28;20176;-72
2023/03/24 01:25:06;;;;;;;1999.90;999.90;;;14.50;99.90;;;;;;5074345;28;20404;-73
2023/03/24 01:27:32;;;;;;;1999.90;999.90;;;14.50;99.90;;;;;;5074081;28;20453;-73
2023/03/24 01:29:59;;;;;;;1999.90;999.90;;;14.50;99.90;;;;;;5074007;28;20982;-71
2023/03/24 01:32:25;;;;;;;1999.90;999.90;;;14.50;99.90;;;;;;5073997;28;20194;-71
2023/03/24 01:34:50;;;;;;;1999.90;999.90;;;14.40;99.90;;;;;;5074237;28;20435;-71
2023/03/24 01:37:16;;;;;;;1999.90;999.90;;;14.40;99.90;;;;;;5073927;28;20190;-73
2023/03/24 01:39:42;;;;;;;1999.90;999.90;;;14.40;99.90;;;;;;5073843;28;20177;-71
2023/03/24 01:42:17;;;;;;;1999.90;999.90;;;14.40;99.90;;;;;;5074172;28;20172;-71
2023/03/24 01:44:46;;;;;;;1999.90;999.90;;;14.40;99.90;;;;;;5074370;28;20189;-71
2023/03/24 01:47:12;;;;;;;1999.90;999.90;;;14.50;99.90;;;;;;5073359;28;20488;-73
2023/03/24 01:49:44;;;;;;;1999.90;999.90;;;14.50;99.90;;;;;;5074075;28;20925;-71
2023/03/24 01:52:16;;;;;;;1999.90;999.90;;;14.50;99.90;;;;;;5073963;28;20646;-72
2023/03/24 01:54:53;;;;;;;1999.90;999.90;;;14.50;99.90;;;;;;5073921;28;20909;-71
2023/03/24 01:57:39;;;;;;;1999.90;999.90;;;14.50;99.90;;;;;;5073737;28;20503;-71
2023/03/24 02:00:11;;;;;;;1999.90;999.90;;;14.50;99.90;;;;;;5073937;28;20408;-71
2023/03/24 02:02:39;;;;;;;1999.90;999.90;;;14.50;99.90;;;;;;5073397;28;20497;-71
2023/03/24 02:05:09;;;;;;;1999.90;999.90;;;14.50;99.90;;;;;;5073677;28;20412;-72
2023/03/24 02:07:49;;;;;;;1999.90;999.90;;;14.60;99.90;;;;;;5073868;28;20462;-71
2023/03/24 02:10:16;;;;;;;1999.90;999.90;;;14.60;99.90;;;;;;5073800;28;20489;-71
2023/03/24 02:12:44;;;;;;;1999.90;999.90;;;14.60;99.90;;;;;;5073345;28;20772;-70
2023/03/24 02:15:13;;;;;;;1999.90;999.90;;;14.60;99.90;;;;;;5073497;28;20497;-71
2023/03/24 02:17:56;;;;;;;1999.90;999.90;;;14.60;99.90;;;;;;5073161;28;20444;-74
2023/03/24 02:20:22;;;;;;;1999.90;999.90;;;14.60;99.90;;;;;;5073214;28;20917;-73
2023/03/24 02:23:14;;;;;;;1999.90;999.90;;;14.60;99.90;;;;;;5072884;28;20406;-72
2023/03/24 02:25:45;;;;;;;1999.90;999.90;;;14.60;99.90;;;;;;5073047;28;20194;-72
2023/03/24 02:28:26;;;;;;;1999.90;999.90;;;14.60;99.90;;;;;;5072992;28;20556;-71
2023/03/24 02:30:57;;;;;;;1999.90;999.90;;;14.70;99.90;;;;;;5073143;28;20464;-74
2023/03/24 02:33:23;;;;;;;1999.90;999.90;;;14.70;99.90;;;;;;5073095;28;20984;-71
2023/03/24 02:35:57;;;;;;;1999.90;999.90;;;14.70;99.90;;;;;;5073315;28;20490;-71
2023/03/24 02:38:40;;;;;;;1999.90;999.90;;;14.80;99.90;;;;;;5073158;28;20168;-74
2023/03/24 02:41:23;;;;;;;1999.90;999.90;;;14.80;99.90;;;;;;5072912;28;20429;-72
2023/03/24 02:44:03;;;;;;;1999.90;999.90;;;14.80;99.90;;;;;;5072707;28;20806;-73
2023/03/24 02:46:36;;;;;;;1999.90;999.90;;;14.80;99.90;;;;;;5076699;28;20823;-73
2023/03/24 02:49:29;;;;;;;1999.90;999.90;;;15.10;99.90;;;;;;5072693;28;20394;-73
2023/03/24 02:52:00;;;;;;;1999.90;999.90;;;14.90;99.90;;;;;;5051080;28;20415;-72
2023/03/24 02:54:32;;;;;;;1999.90;999.90;;;14.90;99.90;;;;;;5072455;28;20797;-72
2023/03/24 02:57:05;;;;;;;1999.90;999.90;;;15.00;99.90;;;;;;5072266;28;20426;-73
2023/03/24 03:00:11;;;;;;;1999.90;999.90;;;15.00;99.90;;;;;;5072111;28;20847;-74
2023/03/24 03:02:44;;;;;;;1999.90;999.90;;;15.10;99.90;;;;;;5030046;28;20437;-72
2023/03/24 03:05:24;;;;;;;1999.90;999.90;;;15.00;99.90;;;;;;5066185;28;20445;-74
2023/03/24 03:07:53;;;;;;;1999.90;999.90;;;15.10;99.90;;;;;;5072201;28;20459;-71
2023/03/24 03:10:24;;;;;;;1999.90;999.90;;;15.00;99.90;;;;;;5072507;28;20407;-71
2023/03/24 03:12:54;;;;;;;1999.90;999.90;;;15.00;99.90;;;;;;5072155;28;20430;-73
2023/03/24 03:15:28;;;;;;;1999.90;999.90;;;14.90;99.90;;;;;;5072183;28;20456;-73
2023/03/24 03:18:04;;;;;;;1999.90;999.90;;;14.90;99.90;;;;;;5072222;28;20399;-71
2023/03/24 03:20:41;;;;;;;1999.90;999.90;;;14.90;99.90;;;;;;5072234;28;20441;-71
2023/03/24 03:23:13;;;;;;;1999.90;999.90;;;14.90;99.90;;;;;;5072302;28;20504;-71
2023/03/24 03:25:45;;;;;;;1999.90;999.90;;;14.80;99.90;;;;;;5072340;28;20767;-72
2023/03/24 03:28:16;;;;;;;1999.90;999.90;;;14.90;99.90;;;;;;5072162;28;20432;-72
2023/03/24 03:30:56;;;;;;;1999.90;999.90;;;14.90;99.90;;;;;;5072301;28;20967;-70
2023/03/24 03:33:25;;;;;;;1999.90;999.90;;;14.90;99.90;;;;;;5072157;28;20393;-71
2023/03/24 03:36:03;;;;;;;1999.90;999.90;;;14.90;99.90;;;;;;5071947;28;20413;-73
2023/03/24 03:38:44;;;;;;;1999.90;999.90;;;14.90;99.90;;;;;;5072025;28;20399;-70
2023/03/24 03:41:10;;;;;;;1999.90;999.90;;;14.90;99.90;;;;;;5071990;28;20457;-71
2023/03/24 03:43:36;;;;;;;1999.90;999.90;;;14.90;99.90;;;;;;5072097;28;20406;-71
2023/03/24 03:46:05;;;;;;;1999.90;999.90;;;14.90;99.90;;;;;;5071888;28;20769;-71
2023/03/24 03:48:31;;;;;;;1999.90;999.90;;;14.80;99.90;;;;;;5072227;28;20818;-71
2023/03/24 03:50:57;;;;;;;1999.90;999.90;;;14.80;99.90;;;;;;5071995;28;20518;-72
2023/03/24 03:53:29;;;;;;;1999.90;999.90;;;14.80;99.90;;;;;;5071911;28;20482;-71
2023/03/24 03:55:55;;;;;;;1999.90;999.90;;;14.90;99.90;;;;;;5071861;28;20194;-71
2023/03/24 03:58:22;;;;;;;1999.90;999.90;;;14.90;99.90;;;;;;5072098;28;20415;-71
2023/03/24 04:00:48;;;;;;;1999.90;999.90;;;14.90;99.90;;;;;;5072138;28;20394;-71
2023/03/24 04:03:48;;;;;;;1999.90;999.90;;;14.80;99.90;;;;;;5071621;28;20948;-72
2023/03/24 04:06:36;;;;;;;1999.90;999.90;;;14.80;99.90;;;;;;5071566;28;20813;-71
2023/03/24 04:09:12;;;;;;;1999.90;999.90;;;14.80;99.90;;;;;;5072796;28;20419;-72
2023/03/24 04:12:16;;;;;;;1999.90;999.90;;;14.80;99.90;;;;;;5075900;28;20965;-71
2023/03/24 04:14:42;;;;;;;1999.90;999.90;;;14.80;99.90;;;;;;5075767;28;20753;-71
2023/03/24 04:17:39;;;;;;;1999.90;999.90;;;14.80;99.90;;;;;;5075513;28;20431;-71
2023/03/24 04:20:13;;;;;;;1999.90;999.90;;;14.80;99.90;;;;;;5076218;28;20174;-71
2023/03/24 04:23:27;;;;;;;1999.90;999.90;;;14.80;99.90;;;;;;5075466;28;20402;-71
2023/03/24 04:26:26;;;;;;;1999.90;999.90;;;14.70;99.90;;;;;;5037812;28;20438;-71
2023/03/24 04:29:25;;;;;;;1999.90;999.90;;;14.60;99.90;;;;;;5075422;28;20412;-72
2023/03/24 04:32:02;;;;;;;1999.90;999.90;;;14.20;99.90;;;;;;5075532;28;20403;-68
2023/03/24 04:34:36;;;;;;;1999.90;999.90;;;13.60;99.90;;;;;;5075105;28;20398;-68
2023/03/24 04:37:11;;;;;;;1999.90;999.90;;;13.10;99.90;;;;;;5075132;28;20426;-68
2023/03/24 04:39:40;;;;;;;1999.90;999.90;;;12.60;99.90;;;;;;5075041;28;20518;-68
2023/03/24 04:42:11;;;;;;;1999.90;999.90;;;12.40;99.90;;;;;;5075366;28;20484;-68
2023/03/24 04:44:40;;;;;;;1999.90;999.90;;;12.30;99.90;;;;;;5075088;28;20405;-67
2023/03/24 04:47:07;;;;;;;1999.90;999.90;;;12.20;99.90;;;;;;5074965;28;21015;-68
2023/03/24 04:49:39;;;;;;;1999.90;999.90;;;12.10;99.90;;;;;;5074978;28;20412;-67
2023/03/24 04:52:06;;;;;;;1999.90;999.90;;;12.10;99.90;;;;;;5074915;28;20439;-67
2023/03/24 04:54:32;;;;;;;1999.90;999.90;;;12.00;99.90;;;;;;5074904;28;20402;-67
2023/03/24 04:57:00;;;;;;;1999.90;999.90;;;12.00;99.90;;;;;;5074700;28;20449;-67
2023/03/24 04:59:27;;;;;;;1999.90;999.90;;;12.00;99.90;;;;;;5074817;28;20973;-68
2023/03/24 05:01:52;;;;;;;1999.90;999.90;;;12.10;99.90;;;;;;5074781;28;20402;-68
2023/03/24 05:04:21;;;;;;;1999.90;999.90;;;12.10;99.90;;;;;;5074521;28;20463;-68
2023/03/24 05:06:48;;;;;;;1999.90;999.90;;;12.10;99.90;;;;;;5074593;28;20248;-68
2023/03/24 05:09:16;;;;;;;1999.90;999.90;;;12.20;99.90;;;;;;5074798;28;20413;-68
2023/03/24 05:11:42;;;;;;;1999.90;999.90;;;12.20;99.90;;;;;;5074630;28;20399;-68
2023/03/24 05:14:08;;;;;;;1999.90;999.90;;;12.20;99.90;;;;;;5074568;28;20410;-65
2023/03/24 05:16:34;;;;;;;1999.90;999.90;;;12.20;99.90;;;;;;5074437;28;20797;-68
2023/03/24 05:19:00;;;;;;;1999.90;999.90;;;12.10;99.90;;;;;;5074231;28;20177;-67
2023/03/24 05:21:26;;;;;;;1999.90;999.90;;;12.10;99.90;;;;;;5073725;28;20175;-65
2023/03/24 05:23:52;;;;;;;1999.90;999.90;;;12.10;99.90;;;;;;5074259;28;20414;-65
2023/03/24 05:26:17;;;;;;;1999.90;999.90;;;12.10;99.90;;;;;;5074128;28;20190;-67
2023/03/24 05:28:43;;;;;;;1999.90;999.90;;;12.00;99.90;;;;;;5074353;28;20168;-68
2023/03/24 05:31:09;;;;;;;1999.90;999.90;;;12.00;99.90;;;;;;5074245;28;20167;-68
2023/03/24 05:33:34;;;;;;;1999.90;999.90;;;11.90;99.90;;;;;;5073924;28;20476;-67
2023/03/24 05:36:00;;;;;;;1999.90;999.90;;;11.80;99.90;;;;;;5074344;28;20187;-65
2023/03/24 05:38:26;;;;;;;1999.90;999.90;;;11.80;99.90;;;;;;5074395;28;20259;-67
2023/03/24 05:40:54;;;;;;;1999.90;999.90;;;11.90;99.90;;;;;;5074160;28;20617;-65
2023/03/24 05:43:20;;;;;;;1999.90;999.90;;;11.80;99.90;;;;;;5073992;28;20202;-67
2023/03/24 05:45:45;;;;;;;1999.90;999.90;;;11.70;99.90;;;;;;5073922;28;20819;-67
2023/03/24 05:48:11;;;;;;;1999.90;999.90;;;11.60;99.90;;;;;;5073732;28;20194;-67
2023/03/24 05:50:36;;;;;;;1999.90;999.90;;;11.50;99.90;;;;;;5073896;28;20202;-67
2023/03/24 05:53:02;;;;;;;1999.90;999.90;;;11.40;99.90;;;;;;5073836;28;20641;-67
2023/03/24 05:55:29;;;;;;;1999.90;999.90;;;11.20;99.90;;;;;;5073687;28;20174;-68
2023/03/24 05:57:54;;;;;;;1999.90;999.90;;;11.30;99.90;;;;;;5073803;28;20222;-66
2023/03/24 06:00:22;;;;;;;1999.90;999.90;;;11.30;99.90;;;;;;5073575;28;20413;-68
2023/03/24 06:02:48;;;;;;;1999.90;999.90;;;11.20;99.90;;;;;;5073271;28;20262;-68
2023/03/24 06:05:14;;;;;;;1999.90;999.90;;;11.20;99.90;;;;;;5073609;28;20550;-68
2023/03/24 06:07:41;;;;;;;1999.90;999.90;;;11.10;99.90;;;;;;5073411;28;20551;-68
2023/03/24 06:10:10;;;;;;;1999.90;999.90;;;11.10;99.90;;;;;;5073466;28;20250;-66
2023/03/24 06:12:35;;;;;;;1999.90;999.90;;;11.10;99.90;;;;;;5073266;28;20393;-68
2023/03/24 06:15:02;;;;;;;1999.90;999.90;;;11.10;99.90;;;;;;5073415;28;20405;-68
2023/03/24 06:17:29;;;;;;;1999.90;999.90;;;11.00;99.90;;;;;;5073050;28;20187;-68
2023/03/24 06:20:03;;;;;;;1999.90;999.90;;;11.00;99.90;;;;;;5073311;28;20406;-68
2023/03/24 06:22:30;;;;;;;1999.90;999.90;;;11.00;99.90;;;;;;5072998;28;20408;-66
2023/03/24 06:24:57;;;;;;;1999.90;999.90;;;11.00;99.90;;;;;;5073255;28;20439;-68
2023/03/24 06:27:28;;;;;;;1999.90;999.90;;;10.90;99.90;;;;;;5072856;28;20970;-68
2023/03/24 06:29:55;;;;;;;1999.90;999.90;;;10.70;99.90;;;;;;5073114;28;20774;-67
2023/03/24 06:32:20;;;;;;;1999.90;999.90;;;10.80;99.90;;;;;;5070777;28;20416;-65
2023/03/24 06:34:46;;;;;;;1999.90;999.90;;;10.70;99.90;;;;;;5073011;28;20918;-65
2023/03/24 06:37:12;;;;;;;1999.90;999.90;;;10.70;99.90;;;;;;5072968;28;20183;-65
2023/03/24 06:39:38;;;;;;;1999.90;999.90;;;10.70;99.90;;;;;;5073029;28;20262;-65
2023/03/24 06:42:03;;;;;;;1999.90;999.90;;;10.70;99.90;;;;;;5072904;28;20402;-67
2023/03/24 06:44:29;;;;;;;1999.90;999.90;;;10.70;99.90;;;;;;5072556;28;20659;-67
2023/03/24 06:46:55;;;;;;;1999.90;999.90;;;10.60;99.90;;;;;;5072680;28;20238;-67
2023/03/24 06:49:20;;;;;;;1999.90;999.90;;;10.70;99.90;;;;;;5073085;28;20637;-67
2023/03/24 06:51:46;;;;;;;1999.90;999.90;;;10.70;99.90;;;;;;5072643;28;20178;-66
2023/03/24 06:54:11;;;;;;;1999.90;999.90;;;10.60;99.90;;;;;;5072392;28;20178;-67
2023/03/24 06:56:37;;;;;;;1999.90;999.90;;;10.70;99.90;;;;;;5072466;28;20195;-67
2023/03/24 06:59:03;;;;;;;1999.90;999.90;;;10.70;99.90;;;;;;5072634;28;20628;-67
2023/03/24 07:01:28;;;;;;;1999.90;999.90;;;10.80;99.90;;;;;;5072595;28;20232;-67
2023/03/24 07:03:54;;;;;;;1999.90;999.90;;;10.80;99.90;;;;;;5072289;28;20539;-67
2023/03/24 07:06:21;;;;;;;1999.90;999.90;;;10.80;99.90;;;;;;5072444;28;20218;-66
2023/03/24 07:08:48;;;;;;;1999.90;999.90;;;10.80;99.90;;;;;;5072457;28;20405;-66
2023/03/24 07:11:14;;;;;;;1999.90;999.90;;;10.80;99.90;;;;;;5072376;28;20444;-66
2023/03/24 07:13:40;;;;;;;1999.90;999.90;;;10.80;99.90;;;;;;5072198;28;20413;-66
2023/03/24 07:16:06;;;;;;;1999.90;999.90;;;10.80;99.90;;;;;;5072103;28;20425;-66
2023/03/24 07:18:32;;;;;;;1999.90;999.90;;;10.90;99.90;;;;;;5072233;28;20802;-66
2023/03/24 07:20:58;;;;;;;1999.90;999.90;;;11.00;99.90;;;;;;5072213;28;20405;-67
2023/03/24 07:23:26;;;;;;;1999.90;999.90;;;10.90;99.90;;;;;;5072015;28;20170;-66
2023/03/24 07:25:52;;;;;;;1999.90;999.90;;;10.90;99.90;;;;;;5071929;28;20225;-67
2023/03/24 07:28:18;;;;;;;1999.90;999.90;;;10.90;99.90;;;;;;5072035;28;20408;-68
2023/03/24 07:30:43;;;;;;;1999.90;999.90;;;10.90;99.90;;;;;;5072071;28;20397;-68
2023/03/24 07:33:12;;;;;;;1999.90;999.90;;;10.80;99.90;;;;;;5071862;28;20439;-68
2023/03/24 07:35:39;;;;;;;1999.90;999.90;;;10.80;99.90;;;;;;5071608;28;20735;-68
2023/03/24 07:38:04;;;;;;;1999.90;999.90;;;10.80;99.90;;;;;;5071954;28;20492;-67
2023/03/24 07:40:30;;;;;;;1999.90;999.90;;;10.90;99.90;;;;;;5072003;28;20913;-67
2023/03/24 07:42:59;;;;;;;1999.90;999.90;;;10.90;99.90;;;;;;5071715;28;20648;-67
2023/03/24 07:45:26;;;;;;;1999.90;999.90;;;11.10;99.90;;;;;;5071661;28;20859;-67
2023/03/24 07:47:51;;;;;;;1999.90;999.90;;;11.10;99.90;;;;;;5071846;28;20468;-67
2023/03/24 07:50:17;;;;;;;1999.90;999.90;;;11.10;99.90;;;;;;5071923;28;20901;-67
2023/03/24 07:52:48;;;;;;;1999.90;999.90;;;11.10;99.90;;;;;;5071700;28;20155;-67
2023/03/24 07:55:14;;;;;;;1999.90;999.90;;;11.20;99.90;;;;;;5071838;28;20257;-67
2023/03/24 07:57:50;;;;;;;1999.90;999.90;;;11.30;99.90;;;;;;5071875;28;20433;-67
2023/03/24 08:00:17;;;;;;;1999.90;999.90;;;11.30;99.90;;;;;;5071853;28;20805;-67
2023/03/24 08:02:49;;;;;;;1999.90;999.90;;;11.30;99.90;;;;;;5071507;28;20418;-67
2023/03/24 08:05:15;;;;;;;1999.90;999.90;;;11.40;99.90;;;;;;5071775;28;20436;-66
2023/03/24 08:07:42;;;;;;;1999.90;999.90;;;11.50;99.90;;;;;;5071419;28;20552;-67
2023/03/24 08:10:10;;;;;;;1999.90;999.90;;;11.60;99.90;;;;;;5071878;28;20432;-67
2023/03/24 08:12:36;;;;;;;1999.90;999.90;;;11.70;99.90;;;;;;5071628;28;20405;-67
2023/03/24 08:15:02;;;;;;;1999.90;999.90;;;11.90;99.90;;;;;;5071726;28;20408;-66
2023/03/24 08:17:28;;;;;;;1999.90;999.90;;;12.00;99.90;;;;;;5071494;28;20201;-67
2023/03/24 08:19:55;;;;;;;1999.90;999.90;;;12.10;99.90;;;;;;5071620;28;20884;-67
2023/03/24 08:22:20;;;;;;;1999.90;999.90;;;12.30;99.90;;;;;;5071385;28;20179;-65
2023/03/24 08:24:46;;;;;;;1999.90;999.90;;;12.40;99.90;;;;;;5071700;28;20505;-66
2023/03/24 08:27:12;;;;;;;1999.90;999.90;;;12.50;99.90;;;;;;5071340;28;20227;-65
2023/03/24 08:29:37;;;;;;;1999.90;999.90;;;12.40;99.90;;;;;;5071516;28;20334;-68
2023/03/24 08:32:03;;;;;;;1999.90;999.90;;;12.30;99.90;;;;;;5071518;28;20214;-66
2023/03/24 08:34:29;;;;;;;1999.90;999.90;;;12.30;99.90;;;;;;5071339;28;20159;-67
2023/03/24 08:36:55;;;;;;;1999.90;999.90;;;12.40;99.90;;;;;;5071184;28;20551;-67
2023/03/24 08:39:20;;;;;;;1999.90;999.90;;;12.40;99.90;;;;;;5071457;28;20159;-67
2023/03/24 08:41:48;;;;;;;1999.90;999.90;;;12.50;99.90;;;;;;5071390;28;20210;-69
2023/03/24 08:44:14;;;;;;;1999.90;999.90;;;12.50;99.90;;;;;;5071204;28;20164;-68
2023/03/24 08:46:40;;;;;;;1999.90;999.90;;;12.40;99.90;;;;;;5071127;28;20990;-66
2023/03/24 08:49:05;;;;;;;1999.90;999.90;;;12.50;99.90;;;;;;5071361;28;20492;-67
2023/03/24 08:51:31;;;;;;;1999.90;999.90;;;12.60;99.90;;;;;;5071213;28;20178;-67
2023/03/24 08:53:57;;;;;;;1999.90;999.90;;;12.60;99.90;;;;;;5071081;28;20167;-67
2023/03/24 08:56:24;;;;;;;1999.90;999.90;;;12.60;99.90;;;;;;5072564;28;20426;-68
2023/03/24 08:58:52;;;;;;;1999.90;999.90;;;12.70;99.90;;;;;;5074996;28;20234;-68
2023/03/24 09:01:19;;;;;;;1999.90;999.90;;;12.70;99.90;;;;;;5074926;28;20505;-68
2023/03/24 09:03:45;;;;;;;1999.90;999.90;;;12.70;99.90;;;;;;5074636;28;20439;-68
2023/03/24 09:06:10;;;;;;;1999.90;999.90;;;12.80;99.90;;;;;;5074449;28;20427;-68
2023/03/24 09:08:36;;;;;;;1999.90;999.90;;;12.80;99.90;;;;;;5074689;28;20493;-68
2023/03/24 09:11:02;;;;;;;1999.90;999.90;;;12.90;99.90;;;;;;5074802;28;20258;-68
2023/03/24 09:13:28;;;;;;;1999.90;999.90;;;12.90;99.90;;;;;;5074387;28;20673;-67
2023/03/24 09:15:58;;;;;;;1999.90;999.90;;;12.80;99.90;;;;;;5074422;28;20197;-68
2023/03/24 09:18:24;;;;;;;1999.90;999.90;;;13.00;99.90;;;;;;5074567;28;20173;-67
2023/03/24 09:20:50;;;;;;;1999.90;999.90;;;13.20;99.90;;;;;;5074412;28;20403;-68
2023/03/24 09:23:17;;;;;;;1999.90;999.90;;;13.30;99.90;;;;;;5074405;28;20928;-67
2023/03/24 09:25:43;;;;;;;1999.90;999.90;;;13.40;99.90;;;;;;5074256;28;20432;-68
2023/03/24 09:28:08;;;;;;;1999.90;999.90;;;13.50;99.90;;;;;;5071134;28;20457;-67
2023/03/24 09:30:35;;;;;;;1999.90;999.90;;;13.60;99.90;;;;;;5070184;28;20541;-70
2023/03/24 09:33:00;;;;;;;1999.90;999.90;;;13.50;99.90;;;;;;5069538;28;20185;-70
2023/03/24 09:35:26;;;;;;;1999.90;999.90;;;13.70;99.90;;;;;;5069656;28;20422;-66
2023/03/24 09:37:53;;;;;;;1999.90;999.90;;;13.50;99.90;;;;;;5070630;28;20894;-70
2023/03/24 09:40:26;;;;;;;1999.90;999.90;;;13.50;99.90;;;;;;5069556;28;20434;-68
2023/03/24 09:43:03;;;;;;;1999.90;999.90;;;13.50;99.90;;;;;;5068135;28;20769;-68
2023/03/24 09:45:32;;;;;;;1999.90;999.90;;;13.60;99.90;;;;;;5069432;28;20415;-68
2023/03/24 09:48:07;;;;;;;1999.90;999.90;;;13.70;99.90;;;;;;5069651;28;20961;-64
2023/03/24 09:50:38;;;;;;;1999.90;999.90;;;13.70;99.90;;;;;;5066910;28;20974;-68
2023/03/24 09:53:20;;;;;;;1999.90;999.90;;;13.60;99.90;;;;;;5069558;28;20442;-68
2023/03/24 09:55:48;;;;;;;1999.90;999.90;;;13.70;99.90;;;;;;5069798;28;21313;-69
2023/03/24 09:58:14;;;;;;;1999.90;999.90;;;13.80;99.90;;;;;;5067856;28;20899;-68
2023/03/24 10:00:41;;;;;;;1999.90;999.90;;;13.70;99.90;;;;;;5068729;28;20416;-69
2023/03/24 10:03:19;;;;;;;1999.90;999.90;;;13.80;99.90;;;;;;5069579;28;20409;-68
2023/03/24 10:06:05;;;;;;;1999.90;999.90;;;13.90;99.90;;;;;;5069160;28;20440;-68
2023/03/24 10:08:47;;;;;;;1999.90;999.90;;;13.80;99.90;;;;;;5068507;28;20956;-69
2023/03/24 10:11:34;;;;;;;1999.90;999.90;;;13.90;99.90;;;;;;5067207;28;20798;-69
2023/03/24 10:14:17;;;;;;;1999.90;999.90;;;14.00;99.90;;;;;;5069320;28;20500;-69
2023/03/24 10:17:09;;;;;;;1999.90;999.90;;;14.20;99.90;;;;;;5069536;28;20486;-70
2023/03/24 10:20:15;;;;;;;1999.90;999.90;;;14.30;99.90;;;;;;5068303;28;20405;-67
2023/03/24 10:22:53;;;;;;;1999.90;999.90;;;14.40;99.90;;;;;;5025364;28;20943;-69
2023/03/24 10:25:18;;;;;;;1999.90;999.90;;;14.40;99.90;;;;;;5064255;28;20421;-69
2023/03/24 10:27:56;;;;;;;1999.90;999.90;;;14.30;99.90;;;;;;5068329;28;20454;-68
2023/03/24 10:30:29;;;;;;;1999.90;999.90;;;14.20;99.90;;;;;;5068575;28;20169;-67
2023/03/24 10:32:54;;;;;;;1999.90;999.90;;;14.10;99.90;;;;;;5068505;28;20415;-69
2023/03/24 10:35:26;;;;;;;1999.90;999.90;;;14.30;99.90;;;;;;5066256;28;20429;-69
2023/03/24 10:37:56;;;;;;;1999.90;999.90;;;14.20;99.90;;;;;;5067824;28;20174;-69
2023/03/24 10:40:31;;;;;;;1999.90;999.90;;;14.40;99.90;;;;;;5066950;28;20969;-64
2023/03/24 10:42:58;;;;;;;1999.90;999.90;;;14.60;99.90;;;;;;5068461;28;20423;-67
2023/03/24 10:45:31;;;;;;;1999.90;999.90;;;14.90;99.90;;;;;;5068170;28;20477;-69
2023/03/24 10:47:59;;;;;;;1999.90;999.90;;;15.00;99.90;;;;;;5067871;28;20488;-69
2023/03/24 10:50:31;;;;;;;1999.90;999.90;;;15.00;99.90;;;;;;5067285;28;20416;-67
2023/03/24 10:52:57;;;;;;;1999.90;999.90;;;14.80;99.90;;;;;;5068032;28;20416;-66
2023/03/24 10:55:30;;;;;;;1999.90;999.90;;;14.80;99.90;;;;;;5068369;28;20412;-68
2023/03/24 10:57:58;;;;;;;1999.90;999.90;;;14.80;99.90;;;;;;5067503;28;20422;-67
2023/03/24 11:00:31;;;;;;;1999.90;999.90;;;15.10;99.90;;;;;;5067818;28;21101;-67
2023/03/24 11:03:03;;;;;;;1999.90;999.90;;;15.00;99.90;;;;;;5067414;28;20445;-68
2023/03/24 11:05:36;;;;;;;1999.90;999.90;;;14.90;99.90;;;;;;5067842;28;20456;-68
2023/03/24 11:08:31;;;;;;;1999.90;999.90;;;15.10;99.90;;;;;;5068496;28;20446;-67
2023/03/24 11:10:57;;;;;;;1999.90;999.90;;;14.90;99.90;;;;;;5067376;28;20423;-68
2023/03/24 11:13:24;;;;;;;1999.90;999.90;;;14.80;99.90;;;;;;5067924;28;20898;-68
2023/03/24 11:16:01;;;;;;;1999.90;999.90;;;14.90;99.90;;;;;;5068502;28;20439;-67
2023/03/24 11:18:27;;;;;;;1999.90;999.90;;;15.20;99.90;;;;;;5068128;28;20444;-67
2023/03/24 11:20:59;;;;;;;1999.90;999.90;;;15.40;99.90;;;;;;5067959;28;20414;-68
2023/03/24 11:23:43;;;;;;;1999.90;999.90;;;15.30;99.90;;;;;;5067788;28;20179;-68
2023/03/24 11:26:13;;;;;;;1999.90;999.90;;;15.10;99.90;;;;;;5066772;28;20436;-68
2023/03/24 11:28:45;;;;;;;1999.90;999.90;;;15.20;99.90;;;;;;5067298;28;20418;-67
2023/03/24 11:31:17;;;;;;;1999.90;999.90;;;15.10;99.90;;;;;;5067197;28;20406;-69
2023/03/24 11:33:55;;;;;;;1999.90;999.90;;;14.90;99.90;;;;;;5067207;28;20503;-70
2023/03/24 11:36:30;;;;;;;1999.90;999.90;;;14.80;99.90;;;;;;5067357;28;20440;-73
2023/03/24 11:39:26;;;;;;;1999.90;999.90;;;14.70;99.90;;;;;;5067804;28;20456;-67
2023/03/24 11:42:10;;;;;;;1999.90;999.90;;;14.70;99.90;;;;;;5066320;28;20440;-67
2023/03/24 11:44:47;;;;;;;1999.90;999.90;;;14.60;99.90;;;;;;5068290;28;20487;-67
2023/03/24 11:47:28;;;;;;;1999.90;999.90;;;14.70;99.90;;;;;;5068273;28;20606;-66
2023/03/24 11:50:03;;;;;;;1999.90;999.90;;;14.80;99.90;;;;;;5067969;28;20494;-67
2023/03/24 11:52:35;;;;;;;1999.90;999.90;;;15.00;99.90;;;;;;5068136;28;20404;-68
2023/03/24 11:55:01;;;;;;;1999.90;999.90;;;15.20;99.90;;;;;;5067875;28;20496;-67
2023/03/24 11:57:47;;;;;;;1999.90;999.90;;;15.30;99.90;;;;;;5067146;28;20428;-67
2023/03/24 12:00:43;;;;;;;1999.90;999.90;;;15.50;99.90;;;;;;5067711;28;20440;-66
2023/03/24 12:03:36;;;;;;;1999.90;999.90;;;15.50;99.90;;;;;;5066723;28;20419;-66
2023/03/24 12:06:19;;;;;;;1999.90;999.90;;;15.30;99.90;;;;;;5068087;28;20531;-67
2023/03/24 12:08:45;;;;;;;1999.90;999.90;;;16.00;99.90;;;;;;5067986;28;20524;-67
2023/03/24 12:11:16;;;;;;;1999.90;999.90;;;17.00;99.90;;;;;;5066933;28;20515;-67
2023/03/24 12:13:47;;;;;;;1999.90;999.90;;;17.30;99.90;;;;;;5067020;28;20655;-67
2023/03/24 12:16:41;;;;;;;1999.90;999.90;;;17.20;99.90;;;;;;5066798;28;20433;-69